sensor_id;sensor_type;location;lat;lon;timestamp;temperature;humidity
7388;DHT22;3735;50.136;11.062;2022-10-17T00:00:26;10.80;99.90
7388;DHT22;3735;50.136;11.062;2022-10-17T00:02:56;10.80;99.90
7388;DHT22;3735;50.136;11.062;2022-10-17T00:05:22;10.80;99.90
7388;DHT22;3735;50.136;11.062;2022-10-17T00:07:49;10.80;99.90
7388;DHT22;3735;50.136;11.062;2022-10-17T00:10:16;10.80;99.90
7388;DHT22;3735;50.136;11.062;2022-10-17T00:12:42;10.70;99.90
7388;DHT22;3735;50.136;11.062;2022-10-17T00:15:08;10.70;99.90
7388;DHT22;3735;50.136;11.062;2022-10-17T00:17:35;10.70;99.90
7388;DHT22;3735;50.136;11.062;2022-10-17T00:20:03;10.70;99.90
7388;DHT22;3735;50.136;11.062;2022-10-17T00:22:29;10.70;99.90
7388;DHT22;3735;50.136;11.062;2022-10-17T00:24:55;10.70;99.90
7388;DHT22;3735;50.136;11.062;2022-10-17T00:27:20;10.70;99.90
7388;DHT22;3735;50.136;11.062;2022-10-17T00:29:50;10.70;99.90
7388;DHT22;3735;50.136;11.062;2022-10-17T00:32:17;10.70;99.90
7388;DHT22;3735;50.136;11.062;2022-10-17T00:34:44;10.70;99.90
7388;DHT22;3735;50.136;11.062;2022-10-17T00:37:10;10.70;99.90
7388;DHT22;3735;50.136;11.062;2022-10-17T00:39:36;10.60;99.90
7388;DHT22;3735;50.136;11.062;2022-10-17T00:42:02;10.60;99.90
7388;DHT22;3735;50.136;11.062;2022-10-17T00:46:57;10.60;99.90
7388;DHT22;3735;50.136;11.062;2022-10-17T00:49:32;10.60;99.90
7388;DHT22;3735;50.136;11.062;2022-10-17T00:52:03;10.60;99.90
7388;DHT22;3735;50.136;11.062;2022-10-17T00:54:34;10.60;99.90
7388;DHT22;3735;50.136;11.062;2022-10-17T00:57:03;10.70;99.90
7388;DHT22;3735;50.136;11.062;2022-10-17T00:59:32;10.80;99.90
7388;DHT22;3735;50.136;11.062;2022-10-17T01:02:03;10.80;99.90
7388;DHT22;3735;50.136;11.062;2022-10-17T01:04:39;10.80;99.90
7388;DHT22;3735;50.136;11.062;2022-10-17T01:07:08;10.70;99.90
7388;DHT22;3735;50.136;11.062;2022-10-17T01:09:34;10.70;99.90
7388;DHT22;3735;50.136;11.062;2022-10-17T01:15:12;10.60;99.90
7388;DHT22;3735;50.136;11.062;2022-10-17T01:18:10;10.60;99.90
7388;DHT22;3735;50.136;11.062;2022-10-17T01:26:26;10.50;99.90
7388;DHT22;3735;50.136;11.062;2022-10-17T01:38:22;10.30;99.90
7388;DHT22;3735;50.136;11.062;2022-10-17T01:41:00;10.30;99.90
7388;DHT22;3735;50.136;11.062;2022-10-17T01:43:40;10.30;99.90
7388;DHT22;3735;50.136;11.062;2022-10-17T01:49:04;10.30;99.90
7388;DHT22;3735;50.136;11.062;2022-10-17T01:51:45;10.30;99.90
7388;DHT22;3735;50.136;11.062;2022-10-17T01:54:22;10.30;99.90
7388;DHT22;3735;50.136;11.062;2022-10-17T01:56:57;10.30;99.90
7388;DHT22;3735;50.136;11.062;2022-10-17T01:59:38;10.20;99.90
7388;DHT22;3735;50.136;11.062;2022-10-17T02:02:05;10.20;99.90
7388;DHT22;3735;50.136;11.062;2022-10-17T02:04:34;10.20;99.90
7388;DHT22;3735;50.136;11.062;2022-10-17T02:07:11;10.20;99.90
7388;DHT22;3735;50.136;11.062;2022-10-17T02:09:38;10.20;99.90
7388;DHT22;3735;50.136;11.062;2022-10-17T02:15:38;10.20;99.90
7388;DHT22;3735;50.136;11.062;2022-10-17T02:21:23;10.10;99.90
7388;DHT22;3735;50.136;11.062;2022-10-17T02:24:06;10.00;99.90
7388;DHT22;3735;50.136;11.062;2022-10-17T02:26:55;10.00;99.90
7388;DHT22;3735;50.136;11.062;2022-10-17T02:29:33;10.00;99.90
7388;DHT22;3735;50.136;11.062;2022-10-17T02:32:07;10.00;99.90
7388;DHT22;3735;50.136;11.062;2022-10-17T02:34:44;9.90;99.90
7388;DHT22;3735;50.136;11.062;2022-10-17T02:37:18;10.00;99.90
7388;DHT22;3735;50.136;11.062;2022-10-17T02:39:47;9.90;99.90
7388;DHT22;3735;50.136;11.062;2022-10-17T02:42:16;9.90;99.90
7388;DHT22;3735;50.136;11.062;2022-10-17T02:44:44;10.00;99.90
7388;DHT22;3735;50.136;11.062;2022-10-17T02:47:27;10.10;99.90
7388;DHT22;3735;50.136;11.062;2022-10-17T02:49:57;10.10;99.90
7388;DHT22;3735;50.136;11.062;2022-10-17T02:52:45;10.00;99.90
7388;DHT22;3735;50.136;11.062;2022-10-17T02:55:23;10.00;99.90
7388;DHT22;3735;50.136;11.062;2022-10-17T02:58:06;10.00;99.90
7388;DHT22;3735;50.136;11.062;2022-10-17T03:00:39;10.00;99.90
7388;DHT22;3735;50.136;11.062;2022-10-17T03:03:27;10.00;99.90
7388;DHT22;3735;50.136;11.062;2022-10-17T03:05:55;10.10;99.90
7388;DHT22;3735;50.136;11.062;2022-10-17T03:08:21;10.20;99.90
7388;DHT22;3735;50.136;11.062;2022-10-17T03:10:47;10.20;99.90
7388;DHT22;3735;50.136;11.062;2022-10-17T03:13:14;10.10;99.90
7388;DHT22;3735;50.136;11.062;2022-10-17T03:15:41;10.00;99.90
7388;DHT22;3735;50.136;11.062;2022-10-17T03:18:07;10.10;99.90
7388;DHT22;3735;50.136;11.062;2022-10-17T03:20:34;10.00;99.90
7388;DHT22;3735;50.136;11.062;2022-10-17T03:23:00;10.10;99.90
7388;DHT22;3735;50.136;11.062;2022-10-17T03:25:26;10.00;99.90
7388;DHT22;3735;50.136;11.062;2022-10-17T03:27:52;10.00;99.90
7388;DHT22;3735;50.136;11.062;2022-10-17T03:30:18;10.00;99.90
7388;DHT22;3735;50.136;11.062;2022-10-17T03:32:44;9.90;99.90
7388;DHT22;3735;50.136;11.062;2022-10-17T03:35:10;10.10;99.90
7388;DHT22;3735;50.136;11.062;2022-10-17T03:37:36;10.10;99.90
7388;DHT22;3735;50.136;11.062;2022-10-17T03:40:02;10.10;99.90
7388;DHT22;3735;50.136;11.062;2022-10-17T03:42:28;10.10;99.90
7388;DHT22;3735;50.136;11.062;2022-10-17T03:44:53;10.10;99.90
7388;DHT22;3735;50.136;11.062;2022-10-17T03:47:19;10.00;99.90
7388;DHT22;3735;50.136;11.062;2022-10-17T03:49:45;10.00;99.90
7388;DHT22;3735;50.136;11.062;2022-10-17T03:52:12;10.00;99.90
7388;DHT22;3735;50.136;11.062;2022-10-17T03:54:38;10.00;99.90
7388;DHT22;3735;50.136;11.062;2022-10-17T03:57:04;10.10;99.90
7388;DHT22;3735;50.136;11.062;2022-10-17T03:59:30;10.10;99.90
7388;DHT22;3735;50.136;11.062;2022-10-17T04:01:56;10.20;99.90
7388;DHT22;3735;50.136;11.062;2022-10-17T04:04:22;10.20;99.90
7388;DHT22;3735;50.136;11.062;2022-10-17T04:06:47;10.30;99.90
7388;DHT22;3735;50.136;11.062;2022-10-17T04:09:13;10.30;99.90
7388;DHT22;3735;50.136;11.062;2022-10-17T04:11:39;10.50;99.90
7388;DHT22;3735;50.136;11.062;2022-10-17T04:14:05;10.50;99.90
7388;DHT22;3735;50.136;11.062;2022-10-17T04:16:31;10.60;99.90
7388;DHT22;3735;50.136;11.062;2022-10-17T04:18:58;10.70;99.90
7388;DHT22;3735;50.136;11.062;2022-10-17T04:21:26;10.70;99.90
7388;DHT22;3735;50.136;11.062;2022-10-17T04:23:57;10.80;99.90
7388;DHT22;3735;50.136;11.062;2022-10-17T04:26:24;10.80;99.90
7388;DHT22;3735;50.136;11.062;2022-10-17T04:28:50;10.90;99.90
7388;DHT22;3735;50.136;11.062;2022-10-17T04:31:17;11.00;99.90
7388;DHT22;3735;50.136;11.062;2022-10-17T04:33:46;11.10;99.90
7388;DHT22;3735;50.136;11.062;2022-10-17T04:36:15;11.20;99.90
7388;DHT22;3735;50.136;11.062;2022-10-17T04:38:43;11.30;99.90
7388;DHT22;3735;50.136;11.062;2022-10-17T04:41:11;11.30;99.90
7388;DHT22;3735;50.136;11.062;2022-10-17T04:43:39;11.30;99.90
7388;DHT22;3735;50.136;11.062;2022-10-17T04:46:10;11.40;99.90
7388;DHT22;3735;50.136;11.062;2022-10-17T04:48:38;11.40;99.90
7388;DHT22;3735;50.136;11.062;2022-10-17T04:51:10;11.40;99.90
7388;DHT22;3735;50.136;11.062;2022-10-17T04:53:39;11.40;99.90
7388;DHT22;3735;50.136;11.062;2022-10-17T04:56:16;11.50;99.90
7388;DHT22;3735;50.136;11.062;2022-10-17T04:58:45;11.50;99.90
7388;DHT22;3735;50.136;11.062;2022-10-17T05:01:14;11.60;99.90
7388;DHT22;3735;50.136;11.062;2022-10-17T05:03:41;11.60;99.90
7388;DHT22;3735;50.136;11.062;2022-10-17T05:06:12;11.60;99.90
7388;DHT22;3735;50.136;11.062;2022-10-17T05:08:40;11.60;99.90
7388;DHT22;3735;50.136;11.062;2022-10-17T05:11:18;11.60;99.90
7388;DHT22;3735;50.136;11.062;2022-10-17T05:13:59;11.60;99.90
7388;DHT22;3735;50.136;11.062;2022-10-17T05:16:27;11.50;99.90
7388;DHT22;3735;50.136;11.062;2022-10-17T05:18:56;11.40;99.90
7388;DHT22;3735;50.136;11.062;2022-10-17T05:21:24;11.20;99.90
7388;DHT22;3735;50.136;11.062;2022-10-17T05:23:51;11.10;99.90
7388;DHT22;3735;50.136;11.062;2022-10-17T05:26:17;11.00;99.90
7388;DHT22;3735;50.136;11.062;2022-10-17T05:28:43;11.00;99.90
7388;DHT22;3735;50.136;11.062;2022-10-17T05:31:09;11.10;99.90
7388;DHT22;3735;50.136;11.062;2022-10-17T05:33:36;11.10;99.90
7388;DHT22;3735;50.136;11.062;2022-10-17T05:36:03;11.00;99.90
7388;DHT22;3735;50.136;11.062;2022-10-17T05:38:30;10.90;99.90
7388;DHT22;3735;50.136;11.062;2022-10-17T05:40:56;10.90;99.90
7388;DHT22;3735;50.136;11.062;2022-10-17T05:43:24;11.00;99.90
7388;DHT22;3735;50.136;11.062;2022-10-17T05:45:50;11.10;99.90
7388;DHT22;3735;50.136;11.062;2022-10-17T05:48:16;11.10;99.90
7388;DHT22;3735;50.136;11.062;2022-10-17T05:50:41;11.10;99.90
7388;DHT22;3735;50.136;11.062;2022-10-17T05:53:07;11.10;99.90
7388;DHT22;3735;50.136;11.062;2022-10-17T05:55:33;11.10;99.90
7388;DHT22;3735;50.136;11.062;2022-10-17T05:57:59;11.20;99.90
7388;DHT22;3735;50.136;11.062;2022-10-17T06:00:26;11.20;99.90
7388;DHT22;3735;50.136;11.062;2022-10-17T06:02:52;11.30;99.90
7388;DHT22;3735;50.136;11.062;2022-10-17T06:05:17;11.40;99.90
7388;DHT22;3735;50.136;11.062;2022-10-17T06:07:43;11.50;99.90
7388;DHT22;3735;50.136;11.062;2022-10-17T06:10:10;11.60;99.90
7388;DHT22;3735;50.136;11.062;2022-10-17T06:12:38;11.80;99.90
7388;DHT22;3735;50.136;11.062;2022-10-17T06:15:04;11.90;99.90
7388;DHT22;3735;50.136;11.062;2022-10-17T06:17:30;11.90;99.90
7388;DHT22;3735;50.136;11.062;2022-10-17T06:19:56;12.00;99.90
7388;DHT22;3735;50.136;11.062;2022-10-17T06:22:22;12.10;99.90
7388;DHT22;3735;50.136;11.062;2022-10-17T06:24:48;12.20;99.90
7388;DHT22;3735;50.136;11.062;2022-10-17T06:27:13;12.40;99.90
7388;DHT22;3735;50.136;11.062;2022-10-17T06:29:39;12.40;99.90
7388;DHT22;3735;50.136;11.062;2022-10-17T06:32:06;12.40;99.90
7388;DHT22;3735;50.136;11.062;2022-10-17T06:34:31;12.30;99.90
7388;DHT22;3735;50.136;11.062;2022-10-17T06:36:57;12.30;99.90
7388;DHT22;3735;50.136;11.062;2022-10-17T06:39:23;12.30;99.90
7388;DHT22;3735;50.136;11.062;2022-10-17T06:41:51;12.40;99.90
7388;DHT22;3735;50.136;11.062;2022-10-17T06:44:17;12.40;99.90
7388;DHT22;3735;50.136;11.062;2022-10-17T06:46:43;12.50;99.90
7388;DHT22;3735;50.136;11.062;2022-10-17T06:49:09;12.60;99.90
7388;DHT22;3735;50.136;11.062;2022-10-17T06:51:36;12.70;99.90
7388;DHT22;3735;50.136;11.062;2022-10-17T06:54:02;12.70;99.90
7388;DHT22;3735;50.136;11.062;2022-10-17T06:56:28;12.80;99.90
7388;DHT22;3735;50.136;11.062;2022-10-17T06:58:54;12.90;99.90
7388;DHT22;3735;50.136;11.062;2022-10-17T07:01:20;12.90;99.90
7388;DHT22;3735;50.136;11.062;2022-10-17T07:03:47;12.90;99.90
7388;DHT22;3735;50.136;11.062;2022-10-17T07:06:16;12.80;99.90
7388;DHT22;3735;50.136;11.062;2022-10-17T07:08:44;12.70;99.90
7388;DHT22;3735;50.136;11.062;2022-10-17T07:11:12;12.70;99.90
7388;DHT22;3735;50.136;11.062;2022-10-17T07:13:42;12.60;99.90
7388;DHT22;3735;50.136;11.062;2022-10-17T07:16:09;12.70;99.90
7388;DHT22;3735;50.136;11.062;2022-10-17T07:18:36;12.80;99.90
7388;DHT22;3735;50.136;11.062;2022-10-17T07:21:03;12.90;99.90
7388;DHT22;3735;50.136;11.062;2022-10-17T07:23:29;12.90;99.90
7388;DHT22;3735;50.136;11.062;2022-10-17T07:25:59;13.00;99.90
7388;DHT22;3735;50.136;11.062;2022-10-17T07:28:27;13.90;99.90
7388;DHT22;3735;50.136;11.062;2022-10-17T07:30:53;15.40;99.90
7388;DHT22;3735;50.136;11.062;2022-10-17T07:33:19;16.90;99.90
7388;DHT22;3735;50.136;11.062;2022-10-17T07:35:45;18.80;99.90
7388;DHT22;3735;50.136;11.062;2022-10-17T07:38:11;20.40;99.90
7388;DHT22;3735;50.136;11.062;2022-10-17T07:40:37;22.00;99.90
7388;DHT22;3735;50.136;11.062;2022-10-17T07:43:02;23.00;99.90
7388;DHT22;3735;50.136;11.062;2022-10-17T07:45:28;23.00;99.90
7388;DHT22;3735;50.136;11.062;2022-10-17T07:47:55;24.00;99.90
7388;DHT22;3735;50.136;11.062;2022-10-17T07:50:22;25.40;99.90
7388;DHT22;3735;50.136;11.062;2022-10-17T07:52:48;26.70;99.90
7388;DHT22;3735;50.136;11.062;2022-10-17T07:55:15;27.70;99.90
7388;DHT22;3735;50.136;11.062;2022-10-17T07:57:41;28.60;99.90
7388;DHT22;3735;50.136;11.062;2022-10-17T08:00:07;29.40;99.90
7388;DHT22;3735;50.136;11.062;2022-10-17T08:02:33;30.00;99.90
7388;DHT22;3735;50.136;11.062;2022-10-17T08:04:59;30.30;99.90
7388;DHT22;3735;50.136;11.062;2022-10-17T08:07:25;30.50;99.90
7388;DHT22;3735;50.136;11.062;2022-10-17T08:09:51;30.30;99.90
7388;DHT22;3735;50.136;11.062;2022-10-17T08:12:16;30.60;99.90
7388;DHT22;3735;50.136;11.062;2022-10-17T08:14:43;30.50;99.90
7388;DHT22;3735;50.136;11.062;2022-10-17T08:17:09;30.00;99.90
7388;DHT22;3735;50.136;11.062;2022-10-17T08:19:41;29.90;99.90
7388;DHT22;3735;50.136;11.062;2022-10-17T08:22:06;30.30;99.90
7388;DHT22;3735;50.136;11.062;2022-10-17T08:24:33;30.60;99.90
7388;DHT22;3735;50.136;11.062;2022-10-17T08:26:58;31.10;99.90
7388;DHT22;3735;50.136;11.062;2022-10-17T08:29:25;31.30;99.90
7388;DHT22;3735;50.136;11.062;2022-10-17T08:31:51;31.40;99.90
7388;DHT22;3735;50.136;11.062;2022-10-17T08:34:17;31.50;99.90
7388;DHT22;3735;50.136;11.062;2022-10-17T08:36:43;31.90;99.90
7388;DHT22;3735;50.136;11.062;2022-10-17T08:39:09;32.10;99.90
7388;DHT22;3735;50.136;11.062;2022-10-17T08:48:07;32.60;99.90
7388;DHT22;3735;50.136;11.062;2022-10-17T08:50:48;32.90;99.90
7388;DHT22;3735;50.136;11.062;2022-10-17T08:53:40;33.20;99.90
7388;DHT22;3735;50.136;11.062;2022-10-17T08:56:34;33.30;99.90
7388;DHT22;3735;50.136;11.062;2022-10-17T08:59:26;33.20;99.90
7388;DHT22;3735;50.136;11.062;2022-10-17T09:05:34;32.60;99.90
7388;DHT22;3735;50.136;11.062;2022-10-17T09:20:35;34.20;99.90
7388;DHT22;3735;50.136;11.062;2022-10-17T09:23:16;34.50;99.90
7388;DHT22;3735;50.136;11.062;2022-10-17T09:25:48;34.80;99.90
7388;DHT22;3735;50.136;11.062;2022-10-17T09:28:25;34.70;99.90
7388;DHT22;3735;50.136;11.062;2022-10-17T09:31:19;34.80;99.90
7388;DHT22;3735;50.136;11.062;2022-10-17T09:33:50;35.00;99.90
7388;DHT22;3735;50.136;11.062;2022-10-17T09:36:40;34.80;99.90
7388;DHT22;3735;50.136;11.062;2022-10-17T09:39:18;34.70;99.90
7388;DHT22;3735;50.136;11.062;2022-10-17T09:41:53;34.60;99.90
7388;DHT22;3735;50.136;11.062;2022-10-17T09:47:01;35.60;99.90
7388;DHT22;3735;50.136;11.062;2022-10-17T09:49:37;36.00;99.90
7388;DHT22;3735;50.136;11.062;2022-10-17T09:52:32;36.20;99.90
7388;DHT22;3735;50.136;11.062;2022-10-17T09:55:10;36.20;99.90
7388;DHT22;3735;50.136;11.062;2022-10-17T09:58:05;36.40;99.90
7388;DHT22;3735;50.136;11.062;2022-10-17T10:00:45;36.10;99.90
7388;DHT22;3735;50.136;11.062;2022-10-17T10:03:21;36.10;99.90
7388;DHT22;3735;50.136;11.062;2022-10-17T10:08:31;36.80;99.90
7388;DHT22;3735;50.136;11.062;2022-10-17T10:11:05;37.00;99.90
7388;DHT22;3735;50.136;11.062;2022-10-17T10:13:33;36.80;99.90
7388;DHT22;3735;50.136;11.062;2022-10-17T10:16:29;36.90;99.90
7388;DHT22;3735;50.136;11.062;2022-10-17T10:18:56;37.10;99.90
7388;DHT22;3735;50.136;11.062;2022-10-17T10:21:24;37.30;99.90
7388;DHT22;3735;50.136;11.062;2022-10-17T10:24:11;37.10;99.90
7388;DHT22;3735;50.136;11.062;2022-10-17T10:26:48;37.10;99.90
7388;DHT22;3735;50.136;11.062;2022-10-17T10:29:37;37.30;99.90
7388;DHT22;3735;50.136;11.062;2022-10-17T10:32:19;37.30;99.90
7388;DHT22;3735;50.136;11.062;2022-10-17T10:34:56;37.30;99.90
7388;DHT22;3735;50.136;11.062;2022-10-17T10:37:27;37.10;99.90
7388;DHT22;3735;50.136;11.062;2022-10-17T10:40:00;37.00;99.90
7388;DHT22;3735;50.136;11.062;2022-10-17T10:42:33;36.70;99.90
7388;DHT22;3735;50.136;11.062;2022-10-17T10:48:25;35.60;99.90
7388;DHT22;3735;50.136;11.062;2022-10-17T10:53:51;34.80;99.90
7388;DHT22;3735;50.136;11.062;2022-10-17T10:56:48;35.10;99.90
7388;DHT22;3735;50.136;11.062;2022-10-17T10:59:25;34.90;99.90
7388;DHT22;3735;50.136;11.062;2022-10-17T11:02:11;34.90;99.90
7388;DHT22;3735;50.136;11.062;2022-10-17T11:08:02;35.10;99.90
7388;DHT22;3735;50.136;11.062;2022-10-17T11:14:00;35.70;99.90
7388;DHT22;3735;50.136;11.062;2022-10-17T11:16:47;36.30;99.90
7388;DHT22;3735;50.136;11.062;2022-10-17T11:19:25;36.80;99.90
7388;DHT22;3735;50.136;11.062;2022-10-17T11:22:23;37.30;99.90
7388;DHT22;3735;50.136;11.062;2022-10-17T11:25:04;38.10;99.90
7388;DHT22;3735;50.136;11.062;2022-10-17T11:27:38;38.40;99.90
7388;DHT22;3735;50.136;11.062;2022-10-17T11:30:05;38.30;99.90
7388;DHT22;3735;50.136;11.062;2022-10-17T11:32:39;38.40;99.90
7388;DHT22;3735;50.136;11.062;2022-10-17T11:35:23;38.20;99.90
7388;DHT22;3735;50.136;11.062;2022-10-17T11:38:11;37.80;99.90
7388;DHT22;3735;50.136;11.062;2022-10-17T11:40:50;37.70;99.90
7388;DHT22;3735;50.136;11.062;2022-10-17T11:43:28;38.20;99.90
7388;DHT22;3735;50.136;11.062;2022-10-17T11:46:09;38.40;99.90
7388;DHT22;3735;50.136;11.062;2022-10-17T11:51:47;38.90;99.90
7388;DHT22;3735;50.136;11.062;2022-10-17T11:54:44;39.40;99.90
7388;DHT22;3735;50.136;11.062;2022-10-17T12:03:33;39.70;99.90
7388;DHT22;3735;50.136;11.062;2022-10-17T12:12:30;40.40;99.90
7388;DHT22;3735;50.136;11.062;2022-10-17T12:18:01;40.00;99.90
7388;DHT22;3735;50.136;11.062;2022-10-17T12:20:35;40.00;99.90
7388;DHT22;3735;50.136;11.062;2022-10-17T12:25:57;40.20;99.90
7388;DHT22;3735;50.136;11.062;2022-10-17T12:28:29;40.10;99.90
7388;DHT22;3735;50.136;11.062;2022-10-17T12:33:54;39.40;99.90
7388;DHT22;3735;50.136;11.062;2022-10-17T12:38:49;38.60;99.90
7388;DHT22;3735;50.136;11.062;2022-10-17T12:49:45;36.50;99.90
7388;DHT22;3735;50.136;11.062;2022-10-17T12:52:21;35.80;99.90
7388;DHT22;3735;50.136;11.062;2022-10-17T12:57:59;34.70;99.90
7388;DHT22;3735;50.136;11.062;2022-10-17T13:00:43;34.70;99.90
7388;DHT22;3735;50.136;11.062;2022-10-17T13:03:17;35.30;99.90
7388;DHT22;3735;50.136;11.062;2022-10-17T13:05:52;35.60;99.90
7388;DHT22;3735;50.136;11.062;2022-10-17T13:08:43;35.60;99.90
7388;DHT22;3735;50.136;11.062;2022-10-17T13:11:11;35.50;99.90
7388;DHT22;3735;50.136;11.062;2022-10-17T13:13:47;35.50;99.90
7388;DHT22;3735;50.136;11.062;2022-10-17T13:18:59;36.50;99.90
7388;DHT22;3735;50.136;11.062;2022-10-17T13:21:28;37.10;99.90
7388;DHT22;3735;50.136;11.062;2022-10-17T13:23:55;36.80;99.90
7388;DHT22;3735;50.136;11.062;2022-10-17T13:26:26;36.60;99.90
7388;DHT22;3735;50.136;11.062;2022-10-17T13:29:04;36.70;99.90
7388;DHT22;3735;50.136;11.062;2022-10-17T13:31:37;36.90;99.90
7388;DHT22;3735;50.136;11.062;2022-10-17T13:34:12;36.70;99.90
7388;DHT22;3735;50.136;11.062;2022-10-17T13:36:46;36.10;99.90
7388;DHT22;3735;50.136;11.062;2022-10-17T13:39:16;35.70;99.90
7388;DHT22;3735;50.136;11.062;2022-10-17T13:41:44;35.80;99.90
7388;DHT22;3735;50.136;11.062;2022-10-17T13:44:14;35.40;99.90
7388;DHT22;3735;50.136;11.062;2022-10-17T13:46:43;35.40;99.90
7388;DHT22;3735;50.136;11.062;2022-10-17T13:49:16;35.20;99.90
7388;DHT22;3735;50.136;11.062;2022-10-17T13:51:50;34.80;99.90
7388;DHT22;3735;50.136;11.062;2022-10-17T13:57:33;33.50;99.90
7388;DHT22;3735;50.136;11.062;2022-10-17T14:00:10;32.60;99.90
7388;DHT22;3735;50.136;11.062;2022-10-17T14:02:44;32.50;99.90
7388;DHT22;3735;50.136;11.062;2022-10-17T14:07:51;32.50;99.90
7388;DHT22;3735;50.136;11.062;2022-10-17T14:10:31;32.30;99.90
7388;DHT22;3735;50.136;11.062;2022-10-17T14:12:59;32.00;99.90
7388;DHT22;3735;50.136;11.062;2022-10-17T14:15:30;31.70;99.90
7388;DHT22;3735;50.136;11.062;2022-10-17T14:18:02;31.80;99.90
7388;DHT22;3735;50.136;11.062;2022-10-17T14:20:32;31.80;99.90
7388;DHT22;3735;50.136;11.062;2022-10-17T14:22:59;31.50;99.90
7388;DHT22;3735;50.136;11.062;2022-10-17T14:30:51;31.60;99.90
7388;DHT22;3735;50.136;11.062;2022-10-17T14:33:30;31.70;99.90
7388;DHT22;3735;50.136;11.062;2022-10-17T14:35:59;31.40;99.90
7388;DHT22;3735;50.136;11.062;2022-10-17T14:38:27;31.30;99.90
7388;DHT22;3735;50.136;11.062;2022-10-17T14:41:05;30.90;99.90
7388;DHT22;3735;50.136;11.062;2022-10-17T14:43:38;30.50;99.90
7388;DHT22;3735;50.136;11.062;2022-10-17T14:46:04;30.20;99.90
7388;DHT22;3735;50.136;11.062;2022-10-17T14:48:29;29.80;99.90
7388;DHT22;3735;50.136;11.062;2022-10-17T14:51:15;29.30;99.90
7388;DHT22;3735;50.136;11.062;2022-10-17T14:56:38;28.80;99.90
7388;DHT22;3735;50.136;11.062;2022-10-17T14:59:06;28.50;99.90
7388;DHT22;3735;50.136;11.062;2022-10-17T15:01:34;28.60;99.90
7388;DHT22;3735;50.136;11.062;2022-10-17T15:04:03;28.80;99.90
7388;DHT22;3735;50.136;11.062;2022-10-17T15:06:32;28.80;99.90
7388;DHT22;3735;50.136;11.062;2022-10-17T15:08:59;28.90;99.90
7388;DHT22;3735;50.136;11.062;2022-10-17T15:11:25;28.60;99.90
7388;DHT22;3735;50.136;11.062;2022-10-17T15:13:51;28.30;99.90
7388;DHT22;3735;50.136;11.062;2022-10-17T15:16:30;27.50;99.90
7388;DHT22;3735;50.136;11.062;2022-10-17T15:18:57;26.60;99.90
7388;DHT22;3735;50.136;11.062;2022-10-17T15:21:24;25.80;99.90
7388;DHT22;3735;50.136;11.062;2022-10-17T15:23:51;25.20;99.90
7388;DHT22;3735;50.136;11.062;2022-10-17T15:26:20;24.60;99.90
7388;DHT22;3735;50.136;11.062;2022-10-17T15:28:51;24.20;99.90
7388;DHT22;3735;50.136;11.062;2022-10-17T15:31:20;23.80;99.90
7388;DHT22;3735;50.136;11.062;2022-10-17T15:33:47;23.40;99.90
7388;DHT22;3735;50.136;11.062;2022-10-17T15:39:03;22.80;99.90
7388;DHT22;3735;50.136;11.062;2022-10-17T15:41:30;22.40;99.90
7388;DHT22;3735;50.136;11.062;2022-10-17T15:43:57;22.30;99.90
7388;DHT22;3735;50.136;11.062;2022-10-17T15:46:26;22.00;99.90
7388;DHT22;3735;50.136;11.062;2022-10-17T15:48:55;21.80;99.90
7388;DHT22;3735;50.136;11.062;2022-10-17T15:51:25;21.60;99.90
7388;DHT22;3735;50.136;11.062;2022-10-17T15:53:51;21.30;99.90
7388;DHT22;3735;50.136;11.062;2022-10-17T15:56:36;21.10;99.90
7388;DHT22;3735;50.136;11.062;2022-10-17T15:59:16;20.80;99.90
7388;DHT22;3735;50.136;11.062;2022-10-17T16:01:46;20.50;99.90
7388;DHT22;3735;50.136;11.062;2022-10-17T16:04:13;20.20;99.90
7388;DHT22;3735;50.136;11.062;2022-10-17T16:06:41;19.90;99.90
7388;DHT22;3735;50.136;11.062;2022-10-17T16:09:08;19.60;99.90
7388;DHT22;3735;50.136;11.062;2022-10-17T16:11:38;19.30;99.90
7388;DHT22;3735;50.136;11.062;2022-10-17T16:14:09;19.00;99.90
7388;DHT22;3735;50.136;11.062;2022-10-17T16:16:36;18.70;99.90
7388;DHT22;3735;50.136;11.062;2022-10-17T16:19:02;18.50;99.90
7388;DHT22;3735;50.136;11.062;2022-10-17T16:21:30;18.20;99.90
7388;DHT22;3735;50.136;11.062;2022-10-17T16:23:59;18.10;99.90
7388;DHT22;3735;50.136;11.062;2022-10-17T16:26:25;17.90;99.90
7388;DHT22;3735;50.136;11.062;2022-10-17T16:28:51;17.70;99.90
7388;DHT22;3735;50.136;11.062;2022-10-17T16:31:35;17.50;99.90
7388;DHT22;3735;50.136;11.062;2022-10-17T16:34:04;17.40;99.90
7388;DHT22;3735;50.136;11.062;2022-10-17T16:36:31;17.20;99.90
7388;DHT22;3735;50.136;11.062;2022-10-17T16:38:57;17.10;99.90
7388;DHT22;3735;50.136;11.062;2022-10-17T16:43:53;17.00;99.90
7388;DHT22;3735;50.136;11.062;2022-10-17T16:46:20;16.90;99.90
7388;DHT22;3735;50.136;11.062;2022-10-17T16:48:47;16.80;99.90
7388;DHT22;3735;50.136;11.062;2022-10-17T16:51:15;16.70;99.90
7388;DHT22;3735;50.136;11.062;2022-10-17T16:53:43;16.60;99.90
7388;DHT22;3735;50.136;11.062;2022-10-17T16:56:12;16.50;99.90
7388;DHT22;3735;50.136;11.062;2022-10-17T16:58:40;16.40;99.90
7388;DHT22;3735;50.136;11.062;2022-10-17T17:01:10;16.20;99.90
7388;DHT22;3735;50.136;11.062;2022-10-17T17:03:42;16.10;99.90
7388;DHT22;3735;50.136;11.062;2022-10-17T17:06:13;16.00;99.90
7388;DHT22;3735;50.136;11.062;2022-10-17T17:08:41;15.90;99.90
7388;DHT22;3735;50.136;11.062;2022-10-17T17:11:09;15.80;99.90
7388;DHT22;3735;50.136;11.062;2022-10-17T17:13:36;15.70;99.90
7388;DHT22;3735;50.136;11.062;2022-10-17T17:18:35;15.50;99.90
7388;DHT22;3735;50.136;11.062;2022-10-17T17:21:04;15.40;99.90
7388;DHT22;3735;50.136;11.062;2022-10-17T17:23:33;15.40;99.90
7388;DHT22;3735;50.136;11.062;2022-10-17T17:26:08;15.40;99.90
7388;DHT22;3735;50.136;11.062;2022-10-17T17:28:36;15.40;99.90
7388;DHT22;3735;50.136;11.062;2022-10-17T17:31:07;15.30;99.90
7388;DHT22;3735;50.136;11.062;2022-10-17T17:33:35;15.20;99.90
7388;DHT22;3735;50.136;11.062;2022-10-17T17:36:02;15.10;99.90
7388;DHT22;3735;50.136;11.062;2022-10-17T17:38:30;15.00;99.90
7388;DHT22;3735;50.136;11.062;2022-10-17T17:40:57;15.00;99.90
7388;DHT22;3735;50.136;11.062;2022-10-17T17:43:24;14.90;99.90
7388;DHT22;3735;50.136;11.062;2022-10-17T17:45:50;14.90;99.90
7388;DHT22;3735;50.136;11.062;2022-10-17T17:48:16;14.90;99.90
7388;DHT22;3735;50.136;11.062;2022-10-17T17:50:42;14.90;99.90
7388;DHT22;3735;50.136;11.062;2022-10-17T17:53:10;14.80;99.90
7388;DHT22;3735;50.136;11.062;2022-10-17T17:55:37;14.70;99.90
7388;DHT22;3735;50.136;11.062;2022-10-17T17:58:03;14.70;99.90
7388;DHT22;3735;50.136;11.062;2022-10-17T18:00:30;14.70;99.90
7388;DHT22;3735;50.136;11.062;2022-10-17T18:02:56;14.60;99.90
7388;DHT22;3735;50.136;11.062;2022-10-17T18:05:22;14.60;99.90
7388;DHT22;3735;50.136;11.062;2022-10-17T18:07:48;14.50;99.90
7388;DHT22;3735;50.136;11.062;2022-10-17T18:10:14;14.50;99.90
7388;DHT22;3735;50.136;11.062;2022-10-17T18:12:40;14.50;99.90
7388;DHT22;3735;50.136;11.062;2022-10-17T18:15:06;14.40;99.90
7388;DHT22;3735;50.136;11.062;2022-10-17T18:17:33;14.40;99.90
7388;DHT22;3735;50.136;11.062;2022-10-17T18:19:59;14.50;99.90
7388;DHT22;3735;50.136;11.062;2022-10-17T18:22:26;14.40;99.90